Time;durP1;ratioP1;P1;durP2;ratioP2;P2;SDS_P1;SDS_P2;PMS_P1;PMS_P2;Temp;Humidity;BMP_temperature;BMP_pressure;BME280_temperature;BME280_humidity;BME280_pressure;Samples;Min_cycle;Max_cycle;Signal;HPM_P1;HPM_P2
2022/03/07 00:02:11;;;;;;;12.20;11.10;;;5.50;66.20;;;;;;10399098;28;20218;-80
2022/03/07 00:07:13;;;;;;;12.60;11.53;;;5.40;64.10;;;;;;10384565;28;20192;-81
2022/03/07 00:12:15;;;;;;;12.93;11.93;;;5.30;63.90;;;;;;10387100;28;20294;-80
2022/03/07 00:17:19;;;;;;;12.43;11.43;;;5.30;67.30;;;;;;10381270;28;20218;-81
2022/03/07 00:22:21;;;;;;;11.73;10.73;;;5.30;67.10;;;;;;10404028;28;20217;-80
2022/03/07 00:27:23;;;;;;;12.70;11.40;;;5.30;68.10;;;;;;10391860;28;20666;-80
2022/03/07 00:32:26;;;;;;;12.60;11.43;;;5.20;65.90;;;;;;10403586;28;20229;-81
2022/03/07 00:37:30;;;;;;;11.17;10.13;;;5.20;67.40;;;;;;10377885;28;20308;-82
2022/03/07 00:42:32;;;;;;;10.97;9.97;;;5.20;69.30;;;;;;10386974;28;20230;-81
2022/03/07 00:47:37;;;;;;;11.47;10.37;;;5.10;67.20;;;;;;10376613;28;20548;-82
2022/03/07 00:52:39;;;;;;;10.80;9.90;;;5.10;69.00;;;;;;10378732;28;20279;-80
2022/03/07 00:57:42;;;;;;;10.80;9.90;;;5.00;67.20;;;;;;10391310;28;20218;-80
2022/03/07 01:02:47;;;;;;;10.70;9.70;;;5.00;69.30;;;;;;10354849;28;20225;-82
2022/03/07 01:07:49;;;;;;;11.47;10.37;;;5.00;69.20;;;;;;10399487;28;20192;-81
2022/03/07 01:12:51;;;;;;;10.20;9.40;;;5.00;67.10;;;;;;10366305;28;20218;-81
2022/03/07 01:17:59;;;;;;;10.67;9.77;;;4.90;65.10;;;;;;10374848;28;20278;-82
2022/03/07 01:23:01;;;;;;;10.77;9.77;;;4.90;65.10;;;;;;10375553;28;20574;-83
2022/03/07 01:28:03;;;;;;;10.67;9.77;;;4.80;68.10;;;;;;10385407;28;20194;-82
2022/03/07 01:33:07;;;;;;;10.83;9.83;;;4.80;68.60;;;;;;10380833;28;20312;-81
2022/03/07 01:38:09;;;;;;;9.47;8.67;;;4.80;69.20;;;;;;10402898;28;20795;-81
2022/03/07 01:43:11;;;;;;;9.63;8.80;;;4.80;64.60;;;;;;10389455;28;20238;-80
2022/03/07 01:48:15;;;;;;;10.80;9.73;;;4.60;67.60;;;;;;10398007;28;20229;-80
2022/03/07 01:53:17;;;;;;;9.27;8.47;;;4.60;68.70;;;;;;10394556;28;20221;-80
2022/03/07 01:58:19;;;;;;;9.73;8.83;;;4.60;69.90;;;;;;10357664;28;20772;-80
2022/03/07 02:03:23;;;;;;;9.30;8.43;;;4.60;68.70;;;;;;10385174;28;20235;-81
2022/03/07 02:08:26;;;;;;;10.30;9.40;;;4.60;68.70;;;;;;10392057;28;20259;-80
2022/03/07 02:13:35;;;;;;;9.40;8.60;;;4.60;69.10;;;;;;10398000;28;20236;-81
2022/03/07 02:18:41;;;;;;;11.23;9.33;;;4.60;69.30;;;;;;10400103;28;20666;-81
2022/03/07 02:24:00;;;;;;;9.57;8.77;;;4.50;69.40;;;;;;10397330;28;20221;-80
2022/03/07 02:29:02;;;;;;;9.03;8.33;;;4.50;68.40;;;;;;10394825;28;20190;-82
2022/03/07 02:34:07;;;;;;;10.23;9.33;;;4.40;68.80;;;;;;10396360;28;20296;-81
2022/03/07 02:39:12;;;;;;;10.17;9.17;;;4.30;67.40;;;;;;10399804;28;20736;-80
2022/03/07 02:44:15;;;;;;;9.93;9.10;;;4.30;68.60;;;;;;10398870;28;20721;-80
2022/03/07 02:49:18;;;;;;;10.20;9.30;;;4.20;68.40;;;;;;10371449;28;20663;-81
2022/03/07 02:54:21;;;;;;;10.50;9.50;;;4.10;68.20;;;;;;10374224;28;20253;-82
2022/03/07 02:59:23;;;;;;;10.20;9.20;;;4.10;68.80;;;;;;10403878;28;20210;-82
2022/03/07 03:04:25;;;;;;;10.40;9.40;;;4.00;68.50;;;;;;10397419;28;20230;-83
2022/03/07 03:09:29;;;;;;;10.77;9.73;;;3.90;68.40;;;;;;10420231;28;20248;-82
2022/03/07 03:14:31;;;;;;;10.83;9.93;;;3.90;67.10;;;;;;10367534;28;20713;-82
2022/03/07 03:19:33;;;;;;;11.10;10.20;;;3.70;67.50;;;;;;10397596;28;20901;-82
2022/03/07 03:24:37;;;;;;;12.30;11.13;;;3.80;68.10;;;;;;10381120;28;20261;-82
2022/03/07 03:29:39;;;;;;;12.00;11.00;;;3.70;69.30;;;;;;10405347;28;20203;-81
2022/03/07 03:34:41;;;;;;;11.37;10.37;;;3.70;69.30;;;;;;10356955;28;20318;-82
2022/03/07 03:39:45;;;;;;;11.53;10.37;;;3.70;70.00;;;;;;10379980;28;20199;-82
2022/03/07 03:44:47;;;;;;;11.60;10.60;;;3.60;69.60;;;;;;10362860;28;20577;-82
2022/03/07 03:50:06;;;;;;;11.07;10.17;;;3.50;68.10;;;;;;10532593;28;20545;-82
2022/03/07 03:55:10;;;;;;;11.40;10.40;;;3.50;69.80;;;;;;10492946;28;20232;-83
2022/03/07 04:00:15;;;;;;;11.30;10.17;;;3.60;69.80;;;;;;10499572;28;20204;-82
2022/03/07 04:05:19;;;;;;;11.63;10.60;;;3.60;70.00;;;;;;10490999;28;20719;-82
2022/03/07 04:10:21;;;;;;;11.00;10.03;;;3.60;70.40;;;;;;10499267;28;20243;-83
2022/03/07 04:15:25;;;;;;;11.23;10.20;;;3.50;69.60;;;;;;10490263;28;20627;-83
2022/03/07 04:20:29;;;;;;;12.03;10.93;;;3.50;69.70;;;;;;10490423;28;20201;-83
2022/03/07 04:25:33;;;;;;;12.43;11.10;;;3.40;70.30;;;;;;10490247;28;20231;-82
2022/03/07 04:30:35;;;;;;;12.77;11.43;;;3.40;70.70;;;;;;10485797;28;20231;-83
2022/03/07 04:35:39;;;;;;;12.47;11.33;;;3.40;71.00;;;;;;10495849;28;20290;-82
2022/03/07 04:40:41;;;;;;;12.60;11.50;;;3.30;71.00;;;;;;10493146;28;20254;-82
2022/03/07 04:45:43;;;;;;;12.73;11.63;;;3.30;70.80;;;;;;10488467;28;20228;-81
2022/03/07 04:50:48;;;;;;;13.00;11.80;;;3.30;71.70;;;;;;10464266;28;20203;-81
2022/03/07 04:55:50;;;;;;;13.07;11.97;;;3.30;71.00;;;;;;10478156;28;20189;-81
2022/03/07 05:00:54;;;;;;;13.33;12.00;;;3.30;70.80;;;;;;10462307;28;20665;-83
2022/03/07 05:05:57;;;;;;;13.77;12.50;;;3.30;71.00;;;;;;10452151;28;20255;-81
2022/03/07 05:10:59;;;;;;;14.53;13.10;;;3.30;70.20;;;;;;10440110;28;20242;-81
2022/03/07 05:16:03;;;;;;;13.90;12.60;;;3.40;71.00;;;;;;10456889;28;20204;-82
2022/03/07 05:21:06;;;;;;;16.30;14.77;;;3.30;70.50;;;;;;10453820;28;20280;-81
2022/03/07 05:26:09;;;;;;;14.30;12.77;;;3.30;71.60;;;;;;10459044;28;20637;-80
2022/03/07 05:31:13;;;;;;;14.63;13.27;;;3.30;70.90;;;;;;10459668;28;20221;-81
2022/03/07 05:36:17;;;;;;;15.30;13.80;;;3.30;70.60;;;;;;10435151;28;20675;-82
2022/03/07 05:41:19;;;;;;;14.97;13.53;;;3.30;71.60;;;;;;10445542;28;20222;-83
2022/03/07 05:46:21;;;;;;;14.77;13.47;;;3.30;70.00;;;;;;10452367;28;20702;-85
2022/03/07 05:51:25;;;;;;;14.93;13.50;;;3.20;72.30;;;;;;10455891;28;20225;-83
2022/03/07 05:56:27;;;;;;;16.87;15.27;;;3.30;73.20;;;;;;10461544;28;20190;-84
2022/03/07 06:01:29;;;;;;;14.77;13.37;;;3.30;73.20;;;;;;10446617;28;20253;-84
2022/03/07 06:06:32;;;;;;;14.40;12.90;;;3.30;72.80;;;;;;10453782;28;20217;-84
2022/03/07 06:11:35;;;;;;;15.33;13.87;;;3.40;73.40;;;;;;10466646;28;20888;-85
2022/03/07 06:16:37;;;;;;;14.00;12.70;;;3.40;73.50;;;;;;10438823;28;20271;-84
2022/03/07 06:21:40;;;;;;;14.83;13.50;;;3.40;72.60;;;;;;10453294;28;20642;-85
2022/03/07 06:26:43;;;;;;;14.97;13.47;;;3.40;73.60;;;;;;10441565;28;20217;-84
2022/03/07 06:31:45;;;;;;;14.97;13.57;;;3.40;74.60;;;;;;10452712;28;20248;-85
2022/03/07 06:36:49;;;;;;;14.60;13.03;;;3.40;74.40;;;;;;10452686;28;20193;-83
2022/03/07 06:41:52;;;;;;;13.00;11.73;;;3.50;74.50;;;;;;10457527;28;20228;-84
2022/03/07 06:46:54;;;;;;;16.57;13.47;;;3.50;74.30;;;;;;10453147;28;20236;-83
2022/03/07 06:51:57;;;;;;;14.07;12.13;;;3.50;74.60;;;;;;10456980;28;20316;-83
2022/03/07 06:56:59;;;;;;;12.80;11.60;;;3.50;74.50;;;;;;10462409;28;20189;-83
2022/03/07 07:02:01;;;;;;;13.17;11.87;;;3.50;72.50;;;;;;10473317;28;20241;-82
2022/03/07 07:07:05;;;;;;;13.07;11.70;;;3.50;72.20;;;;;;10463804;28;20253;-84
2022/03/07 07:12:09;;;;;;;12.23;11.03;;;3.50;73.20;;;;;;10463313;28;20301;-83
2022/03/07 07:17:11;;;;;;;12.50;11.40;;;3.50;73.90;;;;;;10437913;28;20204;-84
2022/03/07 07:22:15;;;;;;;12.70;10.70;;;3.50;73.40;;;;;;10454059;28;20221;-84
2022/03/07 07:27:17;;;;;;;12.33;11.23;;;3.60;74.40;;;;;;10441768;28;20205;-84
2022/03/07 07:32:19;;;;;;;13.27;12.10;;;3.60;73.70;;;;;;10455143;28;20304;-84
2022/03/07 07:37:23;;;;;;;12.93;11.63;;;3.60;73.60;;;;;;10456403;28;20626;-82
2022/03/07 07:42:25;;;;;;;11.60;10.40;;;3.60;73.50;;;;;;10454275;28;20263;-82
2022/03/07 07:47:30;;;;;;;14.20;12.70;;;3.60;73.70;;;;;;10454882;28;20217;-84
2022/03/07 07:52:33;;;;;;;15.20;11.67;;;3.70;71.30;;;;;;10436167;28;20229;-82
2022/03/07 07:57:36;;;;;;;14.10;12.30;;;3.70;72.20;;;;;;10454078;28;20229;-84
2022/03/07 08:02:38;;;;;;;14.20;12.77;;;3.70;71.20;;;;;;10455676;28;20224;-84
2022/03/07 08:07:42;;;;;;;13.10;11.90;;;3.80;72.50;;;;;;10438106;28;20229;-82
2022/03/07 08:12:45;;;;;;;12.50;11.40;;;3.80;70.30;;;;;;10454609;28;20217;-84
2022/03/07 08:17:49;;;;;;;13.70;12.30;;;3.90;71.30;;;;;;10436052;28;20247;-82
2022/03/07 08:22:53;;;;;;;13.67;12.33;;;4.00;69.40;;;;;;10453120;28;20225;-82
2022/03/07 08:27:55;;;;;;;13.27;11.87;;;4.00;71.10;;;;;;10452362;28;20799;-82
2022/03/07 08:32:58;;;;;;;11.80;10.80;;;4.20;69.50;;;;;;10453943;28;20726;-82
2022/03/07 08:38:01;;;;;;;12.50;11.30;;;4.30;70.10;;;;;;10443829;28;20271;-83
2022/03/07 08:43:04;;;;;;;14.17;12.70;;;4.40;68.10;;;;;;10449374;28;20228;-85
2022/03/07 08:48:06;;;;;;;13.30;12.10;;;4.40;70.30;;;;;;10452821;28;20629;-84
2022/03/07 08:53:10;;;;;;;13.20;11.80;;;4.60;68.80;;;;;;10470277;28;20587;-84
2022/03/07 08:58:12;;;;;;;12.57;11.47;;;4.70;66.00;;;;;;10471322;28;20201;-85
2022/03/07 09:03:14;;;;;;;12.47;11.27;;;4.90;64.00;;;;;;10472206;28;20277;-84
2022/03/07 09:08:18;;;;;;;13.93;12.63;;;5.00;63.90;;;;;;10470798;28;20225;-84
2022/03/07 09:13:20;;;;;;;12.90;11.70;;;5.10;66.20;;;;;;10470721;28;20217;-84
2022/03/07 09:18:22;;;;;;;13.37;12.07;;;5.10;64.30;;;;;;10469386;28;20232;-85
2022/03/07 09:23:27;;;;;;;13.20;11.93;;;5.10;65.30;;;;;;10473229;28;20229;-85
2022/03/07 09:28:29;;;;;;;12.40;11.20;;;5.10;65.40;;;;;;10472272;28;20539;-85
2022/03/07 09:33:31;;;;;;;13.80;12.50;;;5.20;64.80;;;;;;10452595;28;20895;-86
2022/03/07 09:38:36;;;;;;;13.03;11.77;;;5.40;65.10;;;;;;10469178;28;20272;-85
2022/03/07 09:43:39;;;;;;;12.67;11.47;;;5.80;65.40;;;;;;10470324;28;20221;-85
2022/03/07 09:48:41;;;;;;;13.50;12.10;;;6.20;63.60;;;;;;10471308;28;20260;-86
2022/03/07 09:53:45;;;;;;;12.17;11.10;;;6.70;59.20;;;;;;10452730;28;20264;-85
2022/03/07 09:58:47;;;;;;;12.13;11.03;;;6.80;59.00;;;;;;10471446;28;20669;-86
2022/03/07 10:03:49;;;;;;;12.97;11.77;;;7.00;58.60;;;;;;10456739;28;20229;-86
2022/03/07 10:08:54;;;;;;;12.60;11.40;;;7.20;57.10;;;;;;10458709;28;20229;-85
2022/03/07 10:13:58;;;;;;;12.90;11.70;;;7.10;58.30;;;;;;10468215;28;20244;-85
2022/03/07 10:19:00;;;;;;;12.50;11.40;;;7.10;58.90;;;;;;10480204;28;20212;-84
2022/03/07 10:24:04;;;;;;;13.13;11.80;;;7.10;57.90;;;;;;10486822;28;20236;-85
2022/03/07 10:29:07;;;;;;;13.57;12.37;;;7.10;57.50;;;;;;10463852;28;20213;-85
2022/03/07 10:34:11;;;;;;;13.20;11.90;;;7.10;57.20;;;;;;10437816;28;20221;-84
2022/03/07 10:39:23;;;;;;;13.57;12.40;;;7.10;59.50;;;;;;10460808;28;20285;-84
2022/03/07 10:44:28;;;;;;;13.83;12.63;;;7.30;60.70;;;;;;10434470;28;20217;-85
2022/03/07 10:49:30;;;;;;;13.33;12.23;;;7.50;58.90;;;;;;10446161;28;20267;-84
2022/03/07 10:54:37;;;;;;;12.70;11.50;;;7.50;59.10;;;;;;10449538;28;20326;-84
2022/03/07 10:59:39;;;;;;;13.00;11.80;;;7.50;59.40;;;;;;10440984;28;20696;-84
2022/03/07 11:04:42;;;;;;;13.27;12.07;;;7.40;59.20;;;;;;10468864;28;20228;-85
2022/03/07 11:09:52;;;;;;;13.83;12.53;;;7.40;59.50;;;;;;10469227;28;20226;-85
2022/03/07 11:14:58;;;;;;;12.50;11.50;;;7.30;56.70;;;;;;10457328;28;20741;-85
2022/03/07 11:20:02;;;;;;;14.60;13.07;;;7.10;59.30;;;;;;10469353;28;20193;-85
2022/03/07 11:25:08;;;;;;;12.67;11.47;;;7.00;61.00;;;;;;10468340;28;20304;-84
2022/03/07 11:30:15;;;;;;;13.90;12.57;;;7.00;61.00;;;;;;10450719;28;20229;-86
2022/03/07 11:35:23;;;;;;;13.23;12.03;;;6.80;60.10;;;;;;10452404;28;20696;-85
2022/03/07 11:40:26;;;;;;;14.20;12.80;;;6.70;62.00;;;;;;10449580;28;20204;-86
2022/03/07 11:45:28;;;;;;;13.83;12.43;;;6.80;58.50;;;;;;10456860;28;20231;-85
2022/03/07 11:50:32;;;;;;;13.53;12.30;;;6.80;60.50;;;;;;10441807;28;20222;-85
2022/03/07 11:55:43;;;;;;;14.57;13.20;;;6.80;61.60;;;;;;10465231;28;20248;-85
2022/03/07 12:00:46;;;;;;;12.60;11.33;;;6.80;60.70;;;;;;10437012;28;20189;-85
2022/03/07 12:05:49;;;;;;;13.80;12.50;;;6.80;60.90;;;;;;10441330;28;20220;-85
2022/03/07 12:10:57;;;;;;;12.80;11.50;;;6.70;58.90;;;;;;10434353;28;20605;-83
2022/03/07 12:16:00;;;;;;;15.53;13.20;;;6.70;59.10;;;;;;10448508;28;20201;-85
2022/03/07 12:21:03;;;;;;;13.20;12.00;;;6.70;57.50;;;;;;10439583;28;20738;-85
2022/03/07 12:26:10;;;;;;;12.77;11.47;;;6.70;57.30;;;;;;10455862;28;20202;-85
2022/03/07 12:31:12;;;;;;;12.83;11.63;;;6.50;57.90;;;;;;10451946;28;20764;-85
2022/03/07 12:36:16;;;;;;;13.67;12.47;;;6.40;55.70;;;;;;10435465;28;20551;-83
2022/03/07 12:41:28;;;;;;;12.77;11.67;;;6.30;57.90;;;;;;10440530;28;20231;-83
2022/03/07 12:46:30;;;;;;;13.40;12.10;;;6.30;59.80;;;;;;10462379;28;20589;-84
2022/03/07 12:51:32;;;;;;;13.60;10.97;;;6.30;57.70;;;;;;10462199;28;20283;-83
2022/03/07 12:56:40;;;;;;;12.77;11.67;;;6.20;58.60;;;;;;10448068;28;20225;-83
2022/03/07 13:01:50;;;;;;;13.60;12.40;;;6.20;58.40;;;;;;10456649;28;20213;-83
2022/03/07 13:06:53;;;;;;;12.47;11.33;;;6.20;56.10;;;;;;10455049;28;20271;-83
2022/03/07 13:11:57;;;;;;;12.90;11.60;;;6.20;57.60;;;;;;10441334;28;20308;-84
2022/03/07 13:17:06;;;;;;;13.70;12.50;;;6.10;58.40;;;;;;10442620;28;20284;-83
2022/03/07 13:22:09;;;;;;;13.30;12.00;;;6.10;56.60;;;;;;10446425;28;20697;-84
2022/03/07 13:27:14;;;;;;;14.47;12.80;;;6.10;55.50;;;;;;10439675;28;20197;-84
2022/03/07 13:32:18;;;;;;;13.17;11.97;;;6.10;57.10;;;;;;10460655;28;20227;-84
2022/03/07 13:37:24;;;;;;;13.20;12.07;;;6.10;56.00;;;;;;10447295;28;20339;-84
2022/03/07 13:42:34;;;;;;;12.27;11.17;;;6.20;56.80;;;;;;10466495;28;20279;-83
2022/03/07 13:47:38;;;;;;;13.50;12.33;;;6.20;57.70;;;;;;10442275;28;20243;-84
2022/03/07 13:52:42;;;;;;;12.80;11.60;;;6.20;56.90;;;;;;10459734;28;20232;-83
2022/03/07 13:57:52;;;;;;;13.50;12.30;;;6.20;56.10;;;;;;10454703;28;20269;-83
2022/03/07 14:02:57;;;;;;;12.67;11.53;;;6.30;57.00;;;;;;10441006;28;20324;-84
2022/03/07 14:08:00;;;;;;;13.43;12.13;;;6.30;55.60;;;;;;10457635;28;20217;-83
2022/03/07 14:13:04;;;;;;;13.10;11.90;;;6.30;58.70;;;;;;10441605;28;20213;-84
2022/03/07 14:18:09;;;;;;;13.77;12.43;;;6.30;59.30;;;;;;10457565;28;20194;-84
2022/03/07 14:23:13;;;;;;;12.77;11.57;;;6.40;59.50;;;;;;10434504;28;20228;-84
2022/03/07 14:28:17;;;;;;;13.10;11.90;;;6.50;58.50;;;;;;10440263;28;20263;-84
2022/03/07 14:33:19;;;;;;;13.40;12.10;;;6.50;55.00;;;;;;10434069;28;20632;-83
2022/03/07 14:38:21;;;;;;;14.53;13.23;;;6.40;58.30;;;;;;10456519;28;20197;-83
2022/03/07 14:43:29;;;;;;;13.07;11.10;;;6.50;58.90;;;;;;10476295;22;20733;-82
2022/03/07 14:48:31;;;;;;;12.90;11.63;;;6.50;56.10;;;;;;10485809;28;20208;-80
2022/03/07 14:53:33;;;;;;;13.73;12.50;;;6.50;58.20;;;;;;10504165;28;20281;-82
2022/03/07 14:58:38;;;;;;;13.70;12.40;;;6.50;58.20;;;;;;10468550;28;20295;-81
2022/03/07 15:03:40;;;;;;;15.13;13.70;;;6.50;56.90;;;;;;10443639;28;20224;-81
2022/03/07 15:08:42;;;;;;;14.23;12.93;;;6.50;56.80;;;;;;10459621;28;20209;-82
2022/03/07 15:13:45;;;;;;;15.17;13.70;;;6.50;57.40;;;;;;10427203;28;20673;-80
2022/03/07 15:18:49;;;;;;;13.80;12.60;;;6.50;57.50;;;;;;10438892;28;20204;-80
2022/03/07 15:23:51;;;;;;;13.97;12.57;;;6.50;56.50;;;;;;10460480;28;20217;-80
2022/03/07 15:28:55;;;;;;;15.00;13.43;;;6.60;58.00;;;;;;10441975;28;20225;-80
2022/03/07 15:33:57;;;;;;;14.37;13.10;;;6.60;55.00;;;;;;10440506;28;20218;-81
2022/03/07 15:38:59;;;;;;;15.20;13.60;;;6.50;56.90;;;;;;10451928;28;20218;-80
2022/03/07 15:44:03;;;;;;;14.00;12.80;;;6.60;57.80;;;;;;10461151;28;20312;-80
2022/03/07 15:49:06;;;;;;;15.40;13.90;;;6.60;55.60;;;;;;10456386;28;20209;-81
2022/03/07 15:54:09;;;;;;;14.27;12.97;;;6.60;55.90;;;;;;10467728;28;20212;-83
2022/03/07 15:59:17;;;;;;;16.30;14.83;;;6.50;58.10;;;;;;10470744;28;20220;-82
2022/03/07 16:04:20;;;;;;;15.40;14.00;;;6.60;58.70;;;;;;10454044;28;20754;-83
2022/03/07 16:09:22;;;;;;;16.00;14.30;;;6.60;59.40;;;;;;10445664;28;20267;-81
2022/03/07 16:14:26;;;;;;;14.80;13.40;;;6.60;60.70;;;;;;10471757;28;20315;-81
2022/03/07 16:19:28;;;;;;;15.10;13.60;;;6.60;58.20;;;;;;10478665;28;20200;-79
2022/03/07 16:24:30;;;;;;;16.30;14.70;;;6.60;58.90;;;;;;10468567;28;20224;-79
2022/03/07 16:29:34;;;;;;;14.27;12.97;;;6.60;60.60;;;;;;10425932;28;20225;-80
2022/03/07 16:34:36;;;;;;;14.77;13.47;;;6.60;60.40;;;;;;10438909;28;20696;-79
2022/03/07 16:39:38;;;;;;;15.43;13.97;;;6.60;62.00;;;;;;10453222;28;20574;-79
2022/03/07 16:44:41;;;;;;;16.27;14.77;;;6.60;57.20;;;;;;10444048;28;20584;-79
2022/03/07 16:49:43;;;;;;;15.60;14.20;;;6.50;60.40;;;;;;10443970;28;20324;-80
2022/03/07 16:54:45;;;;;;;15.80;14.40;;;6.40;60.10;;;;;;10460271;28;20263;-79
2022/03/07 16:59:49;;;;;;;15.13;13.83;;;6.40;59.60;;;;;;10476918;28;20633;-79
2022/03/07 17:04:51;;;;;;;15.33;13.93;;;6.30;60.70;;;;;;10469715;28;20274;-82
2022/03/07 17:09:53;;;;;;;15.07;13.57;;;6.30;62.80;;;;;;10440839;28;20221;-82
2022/03/07 17:14:57;;;;;;;16.20;14.70;;;6.30;61.60;;;;;;10435095;28;20307;-81
2022/03/07 17:20:01;;;;;;;17.10;15.50;;;6.20;62.80;;;;;;10466978;28;20196;-80
2022/03/07 17:25:04;;;;;;;17.30;15.70;;;6.20;62.50;;;;;;10473365;28;20212;-80
2022/03/07 17:30:12;;;;;;;16.47;14.87;;;6.10;61.40;;;;;;10449930;28;20304;-82
2022/03/07 17:35:14;;;;;;;18.10;16.40;;;6.00;60.60;;;;;;10429451;28;20221;-81
2022/03/07 17:40:18;;;;;;;19.47;17.40;;;5.90;62.00;;;;;;10430631;28;20583;-81
2022/03/07 17:45:23;;;;;;;18.30;16.60;;;5.90;58.20;;;;;;10445820;28;20225;-81
2022/03/07 17:50:25;;;;;;;23.00;20.80;;;5.80;60.90;;;;;;10439675;28;20814;-82
2022/03/07 17:55:27;;;;;;;20.63;18.63;;;5.70;60.30;;;;;;10471174;28;20308;-82
2022/03/07 18:00:31;;;;;;;20.70;18.50;;;5.70;62.70;;;;;;10423496;28;20197;-82
2022/03/07 18:05:33;;;;;;;18.83;17.03;;;5.60;60.90;;;;;;10456246;28;20225;-82
2022/03/07 18:10:36;;;;;;;19.13;17.27;;;5.60;62.90;;;;;;10460722;28;20700;-80
2022/03/07 18:15:39;;;;;;;19.40;17.50;;;5.50;61.20;;;;;;10449000;28;20217;-80
2022/03/07 18:20:42;;;;;;;19.87;18.07;;;5.50;63.00;;;;;;10448963;28;20197;-84
2022/03/07 18:25:45;;;;;;;18.57;16.73;;;5.50;63.00;;;;;;10476141;28;20229;-84
2022/03/07 18:30:49;;;;;;;19.50;17.60;;;5.50;62.70;;;;;;10422602;28;20322;-83
2022/03/07 18:35:51;;;;;;;18.90;17.20;;;5.40;62.30;;;;;;10437439;28;20660;-83
2022/03/07 18:40:53;;;;;;;21.43;19.30;;;5.30;62.60;;;;;;10429500;28;20231;-85
2022/03/07 18:45:57;;;;;;;19.63;17.70;;;5.20;63.20;;;;;;10458667;28;20235;-84
2022/03/07 18:50:59;;;;;;;20.57;18.50;;;5.10;63.30;;;;;;10458152;28;20259;-85
2022/03/07 18:56:01;;;;;;;21.40;19.10;;;5.10;63.50;;;;;;10471964;28;20595;-83
2022/03/07 19:01:05;;;;;;;20.40;18.50;;;5.00;63.70;;;;;;10476960;28;20205;-83
2022/03/07 19:06:07;;;;;;;20.83;18.73;;;5.00;61.80;;;;;;10470437;28;20593;-83
2022/03/07 19:11:09;;;;;;;20.40;18.27;;;4.90;61.50;;;;;;10495231;28;20258;-83
2022/03/07 19:16:14;;;;;;;23.00;20.47;;;4.70;62.10;;;;;;10475395;28;20247;-83
2022/03/07 19:21:17;;;;;;;22.37;20.10;;;4.60;64.30;;;;;;10465866;28;20204;-83
2022/03/07 19:26:19;;;;;;;26.13;23.33;;;4.40;65.70;;;;;;10456335;28;20200;-83
2022/03/07 19:31:23;;;;;;;24.00;21.50;;;4.40;64.10;;;;;;10455595;28;20226;-83
2022/03/07 19:36:28;;;;;;;29.40;24.97;;;4.40;63.50;;;;;;10445158;28;20220;-83
2022/03/07 19:41:30;;;;;;;24.87;22.37;;;4.30;62.50;;;;;;10443569;28;20220;-83
2022/03/07 19:46:34;;;;;;;21.67;19.50;;;4.20;64.00;;;;;;10428853;28;20498;-83
2022/03/07 19:51:37;;;;;;;22.87;20.60;;;4.20;60.60;;;;;;10433188;28;20228;-83
2022/03/07 19:56:40;;;;;;;23.80;21.40;;;4.20;64.00;;;;;;10427829;28;20244;-83
2022/03/07 20:01:43;;;;;;;24.43;21.93;;;4.20;63.00;;;;;;10422036;28;20641;-83
2022/03/07 20:06:46;;;;;;;22.97;20.60;;;4.10;63.40;;;;;;10427904;28;20208;-83
2022/03/07 20:11:48;;;;;;;23.40;20.93;;;4.10;63.60;;;;;;10423182;28;20590;-82
2022/03/07 20:16:51;;;;;;;23.57;21.27;;;4.00;65.80;;;;;;10438349;28;20233;-83
2022/03/07 20:21:55;;;;;;;26.50;23.70;;;4.00;66.70;;;;;;10411960;28;20220;-84
2022/03/07 20:26:57;;;;;;;26.87;24.07;;;4.10;66.70;;;;;;10428814;28;20208;-84
2022/03/07 20:38:08;;;;;;;24.10;21.60;;;4.00;64.40;;;;;;10444031;28;20747;-84
2022/03/07 20:44:00;;;;;;;23.53;21.20;;;4.10;65.10;;;;;;10501983;22;20258;-86
2022/03/07 20:49:32;;;;;;;;;;;;;;;;;;;;;
2022/03/07 20:54:42;;;;;;;23.83;21.57;;;4.00;65.10;;;;;;10466353;28;20223;-87
2022/03/07 20:59:44;;;;;;;22.50;20.20;;;4.00;65.60;;;;;;10442506;28;20223;-87
2022/03/07 21:04:50;;;;;;;22.50;20.20;;;4.00;61.80;;;;;;10468119;28;20221;-87
2022/03/07 21:09:55;;;;;;;22.20;19.90;;;3.90;64.70;;;;;;10458953;28;20571;-86
2022/03/07 21:14:58;;;;;;;23.50;21.03;;;3.80;63.50;;;;;;10461184;28;20663;-89
2022/03/07 21:20:03;;;;;;;23.33;20.93;;;3.80;65.10;;;;;;10472423;28;21375;-88
2022/03/07 21:25:10;;;;;;;22.13;20.07;;;3.70;64.40;;;;;;10463879;28;20228;-87
2022/03/07 21:30:13;;;;;;;23.83;21.17;;;3.70;64.30;;;;;;10470191;28;20315;-87
2022/03/07 21:35:20;;;;;;;24.23;21.90;;;3.70;64.20;;;;;;10455035;28;20604;-86
2022/03/07 21:40:23;;;;;;;25.27;22.67;;;3.80;65.30;;;;;;10457206;28;20200;-89
2022/03/07 21:45:26;;;;;;;24.17;21.73;;;3.90;64.20;;;;;;10466533;28;20229;-86
2022/03/07 21:50:33;;;;;;;22.20;20.00;;;3.80;66.30;;;;;;10494630;28;20677;-85
2022/03/07 21:55:37;;;;;;;23.90;20.93;;;3.70;63.50;;;;;;10439081;28;20244;-86
2022/03/07 22:00:40;;;;;;;27.33;23.60;;;3.80;65.30;;;;;;10462621;28;20216;-87
2022/03/07 22:05:47;;;;;;;24.80;22.30;;;3.80;64.30;;;;;;10470513;28;20225;-87
2022/03/07 22:10:50;;;;;;;25.40;21.73;;;3.80;64.80;;;;;;10457346;28;20247;-86
2022/03/07 22:15:54;;;;;;;25.40;22.23;;;3.70;63.60;;;;;;10455994;28;20274;-87
2022/03/07 22:20:58;;;;;;;22.83;20.53;;;3.60;65.20;;;;;;10468168;28;20204;-87
2022/03/07 22:26:00;;;;;;;23.40;21.00;;;3.60;62.80;;;;;;10453540;28;20220;-86
2022/03/07 22:31:04;;;;;;;24.23;21.63;;;3.50;62.80;;;;;;10478029;28;20212;-86
2022/03/07 22:36:08;;;;;;;26.20;21.53;;;3.40;65.00;;;;;;10484116;28;20216;-86
2022/03/07 22:41:12;;;;;;;22.40;20.13;;;3.40;65.10;;;;;;10455315;28;20192;-88
2022/03/07 22:46:22;;;;;;;23.47;21.07;;;3.20;66.00;;;;;;10455744;28;20560;-85
2022/03/07 22:51:26;;;;;;;23.50;20.83;;;3.00;65.20;;;;;;10458264;28;20622;-88
2022/03/07 22:56:28;;;;;;;24.10;21.50;;;2.90;65.10;;;;;;10461572;28;20775;-89
2022/03/07 23:01:31;;;;;;;23.07;20.77;;;2.70;67.20;;;;;;10470487;28;20188;-86
2022/03/07 23:11:57;;;;;;;23.50;21.27;;;2.50;66.70;;;;;;10460259;28;20231;-87
2022/03/07 23:16:59;;;;;;;21.77;19.57;;;2.40;66.40;;;;;;10457090;28;20236;-87
2022/03/07 23:22:03;;;;;;;23.40;21.00;;;2.30;67.40;;;;;;10450308;28;20224;-86
2022/03/07 23:27:09;;;;;;;23.20;20.93;;;2.20;66.90;;;;;;10451965;28;20220;-87
2022/03/07 23:32:14;;;;;;;23.00;20.70;;;2.20;67.20;;;;;;10459149;28;20225;-88
2022/03/07 23:37:18;;;;;;;23.40;20.93;;;2.10;67.10;;;;;;10456230;28;20688;-87
2022/03/07 23:42:20;;;;;;;23.70;21.27;;;2.10;68.30;;;;;;10456045;28;20228;-86
2022/03/07 23:47:23;;;;;;;26.10;22.43;;;2.10;67.40;;;;;;10473778;28;20664;-86
2022/03/07 23:52:27;;;;;;;23.07;20.67;;;2.00;68.80;;;;;;10455757;28;20233;-87
2022/03/07 23:57:29;;;;;;;25.10;22.50;;;1.90;67.50;;;;;;10457156;28;20200;-87
